createdAt,value
2022-10-19T00:02:13.121Z,2.00
2022-10-19T00:04:40.042Z,1.60
2022-10-19T00:07:06.861Z,1.65
2022-10-19T00:09:33.669Z,1.90
2022-10-19T00:12:00.581Z,1.50
2022-10-19T00:14:27.388Z,1.80
2022-10-19T00:16:55.663Z,1.57
2022-10-19T00:19:24.261Z,1.83
2022-10-19T00:24:17.965Z,1.60
2022-10-19T00:26:44.800Z,2.00
2022-10-19T00:29:12.803Z,1.53
2022-10-19T00:31:39.720Z,1.38
2022-10-19T00:34:06.581Z,1.63
2022-10-19T00:36:35.404Z,1.80
2022-10-19T00:39:02.720Z,1.95
2022-10-19T00:41:30.740Z,1.80
2022-10-19T00:44:08.240Z,1.60
2022-10-19T00:46:37.200Z,1.70
2022-10-19T00:49:10.900Z,1.50
2022-10-19T00:51:40.080Z,1.98
2022-10-19T00:54:07.021Z,1.70
2022-10-19T00:56:34.043Z,1.45
2022-10-19T00:59:03.240Z,1.55
2022-10-19T01:01:30.172Z,1.85
2022-10-19T01:03:57.100Z,2.05
2022-10-19T01:06:24.263Z,1.83
2022-10-19T01:08:51.082Z,1.70
2022-10-19T01:11:23.907Z,1.90
2022-10-19T01:13:54.461Z,1.70
2022-10-19T01:16:46.204Z,1.88
2022-10-19T01:19:28.523Z,1.67
2022-10-19T01:22:19.624Z,1.60
2022-10-19T01:25:11.638Z,1.75
2022-10-19T01:27:51.361Z,1.15
2022-10-19T01:30:28.744Z,1.13
2022-10-19T01:33:20.141Z,1.10
2022-10-19T01:35:52.840Z,1.17
2022-10-19T01:38:27.069Z,1.30
2022-10-19T01:41:35.521Z,1.30
2022-10-19T01:44:09.788Z,1.17
2022-10-19T01:46:41.259Z,1.10
2022-10-19T01:49:33.643Z,1.20
2022-10-19T01:52:02.562Z,1.42
2022-10-19T01:54:31.141Z,1.13
2022-10-19T01:56:58.980Z,1.35
2022-10-19T01:59:25.820Z,1.40
2022-10-19T02:01:52.939Z,1.17
2022-10-19T02:04:21.061Z,1.52
2022-10-19T02:06:47.886Z,1.20
2022-10-19T02:09:18.282Z,1.30
2022-10-19T02:11:53.363Z,1.00
2022-10-19T02:14:25.701Z,1.13
2022-10-19T02:16:55.301Z,1.50
2022-10-19T02:21:49.003Z,1.30
2022-10-19T02:24:15.841Z,1.20
2022-10-19T02:26:42.742Z,1.30
2022-10-19T02:29:09.740Z,1.23
2022-10-19T02:31:36.561Z,1.35
2022-10-19T02:34:03.399Z,1.00
2022-10-19T02:36:30.240Z,1.27
2022-10-19T02:38:57.043Z,1.40
2022-10-19T02:41:35.380Z,1.20
2022-10-19T02:44:09.559Z,1.15
2022-10-19T02:46:42.567Z,1.50
2022-10-19T02:49:09.706Z,1.33
2022-10-19T02:51:40.782Z,1.30
2022-10-19T02:54:08.164Z,1.38
2022-10-19T02:56:35.139Z,1.40
2022-10-19T02:59:02.662Z,1.40
2022-10-19T03:01:29.460Z,1.27
2022-10-19T03:03:56.341Z,1.20
2022-10-19T03:06:23.683Z,1.23
2022-10-19T03:08:51.040Z,1.17
2022-10-19T03:11:17.840Z,1.30
2022-10-19T03:13:44.831Z,0.97
2022-10-19T03:16:12.390Z,1.33
2022-10-19T03:18:39.480Z,1.30
2022-10-19T03:21:10.780Z,1.40
2022-10-19T03:23:38.040Z,1.15
2022-10-19T03:26:07.611Z,1.20
2022-10-19T03:28:36.942Z,1.60
2022-10-19T03:31:03.759Z,1.35
2022-10-19T03:33:30.542Z,1.00
2022-10-19T03:36:22.219Z,1.40
2022-10-19T03:38:55.741Z,1.43
2022-10-19T03:41:23.339Z,1.40
2022-10-19T03:43:50.325Z,1.38
2022-10-19T03:46:17.301Z,1.35
2022-10-19T03:48:44.241Z,1.13
2022-10-19T03:51:12.952Z,1.00
2022-10-19T03:53:40.721Z,1.23
2022-10-19T03:56:09.400Z,1.40
2022-10-19T03:58:37.001Z,1.25
2022-10-19T04:01:07.417Z,1.35
2022-10-19T04:06:15.810Z,1.05
2022-10-19T04:08:45.180Z,1.33
2022-10-19T04:11:13.521Z,1.20
2022-10-19T04:13:40.443Z,0.90
2022-10-19T04:16:07.781Z,0.93
2022-10-19T04:18:34.603Z,1.10
2022-10-19T04:21:04.923Z,0.95
2022-10-19T04:23:33.623Z,1.20
2022-10-19T04:26:04.548Z,1.15
2022-10-19T04:28:31.446Z,1.00
2022-10-19T04:30:58.340Z,1.05
2022-10-19T04:33:25.180Z,1.23
2022-10-19T04:35:57.584Z,0.98
2022-10-19T04:38:24.408Z,1.10
2022-10-19T04:40:51.322Z,1.23
2022-10-19T04:43:18.182Z,0.95
2022-10-19T04:45:45.020Z,1.15
2022-10-19T04:48:14.960Z,0.85
2022-10-19T04:50:42.136Z,1.00
2022-10-19T04:53:09.044Z,0.93
2022-10-19T04:55:40.964Z,0.77
2022-10-19T04:58:07.900Z,0.90
2022-10-19T05:00:34.948Z,0.73
2022-10-19T05:03:01.804Z,0.88
2022-10-19T05:05:28.619Z,0.90
2022-10-19T05:07:55.441Z,0.90
2022-10-19T05:10:22.244Z,1.20
2022-10-19T05:12:49.042Z,1.13
2022-10-19T05:15:15.924Z,1.02
2022-10-19T05:17:42.763Z,1.00
2022-10-19T05:20:11.407Z,1.35
2022-10-19T05:22:38.962Z,1.02
2022-10-19T05:25:07.129Z,1.27
2022-10-19T05:27:34.639Z,1.15
2022-10-19T05:30:01.642Z,1.00
2022-10-19T05:32:28.781Z,1.17
2022-10-19T05:34:55.560Z,1.40
2022-10-19T05:37:22.647Z,1.30
2022-10-19T05:39:49.422Z,1.15
2022-10-19T05:42:16.240Z,1.20
2022-10-19T05:44:43.104Z,1.50
2022-10-19T05:47:09.920Z,1.30
2022-10-19T05:49:36.802Z,1.48
2022-10-19T05:52:03.743Z,1.60
2022-10-19T05:54:30.630Z,1.00
2022-10-19T05:56:57.462Z,1.33
2022-10-19T05:59:24.345Z,1.30
2022-10-19T06:01:51.405Z,1.20
2022-10-19T06:04:18.343Z,1.35
2022-10-19T06:06:45.941Z,1.20
2022-10-19T06:09:12.922Z,1.00
2022-10-19T06:11:40.787Z,1.30
2022-10-19T06:14:09.739Z,1.20
2022-10-19T06:16:36.622Z,1.25
2022-10-19T06:19:03.623Z,1.10
2022-10-19T06:21:30.882Z,1.23
2022-10-19T06:23:59.463Z,1.40
2022-10-19T06:26:26.524Z,1.15
2022-10-19T06:28:55.611Z,1.40
2022-10-19T06:31:22.400Z,1.13
2022-10-19T06:33:49.756Z,1.17
2022-10-19T06:36:21.860Z,1.50
2022-10-19T06:38:48.898Z,1.23
2022-10-19T06:41:15.883Z,1.35
2022-10-19T06:43:43.602Z,1.47
2022-10-19T06:46:20.571Z,1.08
2022-10-19T06:48:54.670Z,1.30
2022-10-19T06:51:21.801Z,1.10
2022-10-19T06:53:51.671Z,1.33
2022-10-19T06:56:24.609Z,1.30
2022-10-19T06:58:51.660Z,0.98
2022-10-19T07:01:18.600Z,1.10
2022-10-19T07:03:45.582Z,1.23
2022-10-19T07:06:12.822Z,1.15
2022-10-19T07:08:40.521Z,1.07
2022-10-19T07:11:09.719Z,1.33
2022-10-19T07:13:36.606Z,1.00
2022-10-19T07:16:08.521Z,1.13
2022-10-19T07:18:35.802Z,1.00
2022-10-19T07:21:03.922Z,1.00
2022-10-19T07:23:31.578Z,1.05
2022-10-19T07:26:01.899Z,1.02
2022-10-19T07:28:29.580Z,1.45
2022-10-19T07:30:56.540Z,1.15
2022-10-19T07:33:23.485Z,0.90
2022-10-19T07:35:50.344Z,1.50
2022-10-19T07:38:17.180Z,1.80
2022-10-19T07:40:46.562Z,1.77
2022-10-19T07:43:14.482Z,1.63
2022-10-19T07:45:41.324Z,1.20
2022-10-19T07:48:08.202Z,1.90
2022-10-19T07:50:35.024Z,1.80
2022-10-19T07:53:03.599Z,1.60
2022-10-19T07:55:30.421Z,1.80
2022-10-19T07:58:01.567Z,1.47
2022-10-19T08:00:28.599Z,1.23
2022-10-19T08:03:19.353Z,1.90
2022-10-19T08:05:42.501Z,1.58
2022-10-19T08:08:09.302Z,1.33
2022-10-19T08:10:36.141Z,1.23
2022-10-19T08:13:02.980Z,1.45
2022-10-19T08:15:30.330Z,1.25
2022-10-19T08:17:57.201Z,0.88
2022-10-19T08:20:24.022Z,1.15
2022-10-19T08:22:55.038Z,0.80
2022-10-19T08:25:24.989Z,1.00
2022-10-19T08:27:52.634Z,1.27
2022-10-19T08:30:19.480Z,1.00
2022-10-19T08:32:46.302Z,0.95
2022-10-19T08:35:13.120Z,1.00
2022-10-19T08:37:44.744Z,1.20
2022-10-19T08:40:25.801Z,1.00
2022-10-19T08:42:58.399Z,0.82
2022-10-19T08:45:47.067Z,1.85
2022-10-19T08:48:16.822Z,1.60
2022-10-19T08:50:44.282Z,1.55
2022-10-19T08:53:22.544Z,2.20
2022-10-19T08:55:55.259Z,2.17
2022-10-19T08:58:36.881Z,2.20
2022-10-19T09:01:22.440Z,1.03
2022-10-19T09:03:56.306Z,1.00
2022-10-19T09:06:37.684Z,1.60
2022-10-19T09:09:05.121Z,1.40
2022-10-19T09:11:34.964Z,1.10
2022-10-19T09:14:23.652Z,0.70
2022-10-19T09:16:50.485Z,0.98
2022-10-19T09:19:29.520Z,1.10
2022-10-19T09:21:57.221Z,1.20
2022-10-19T09:24:43.781Z,1.77
2022-10-19T09:27:37.040Z,1.70
2022-10-19T09:30:06.267Z,2.15
2022-10-19T09:32:38.103Z,2.00
2022-10-19T09:35:07.705Z,1.60
2022-10-19T09:37:37.584Z,1.83
2022-10-19T09:40:06.042Z,1.37
2022-10-19T09:42:34.049Z,2.03
2022-10-19T09:45:06.721Z,2.20
2022-10-19T09:47:38.390Z,1.23
2022-10-19T09:50:15.003Z,1.17
2022-10-19T09:52:42.642Z,0.93
2022-10-19T09:55:15.859Z,1.20
2022-10-19T09:57:49.910Z,1.17
2022-10-19T10:00:24.341Z,1.67
2022-10-19T10:02:55.227Z,1.90
2022-10-19T10:05:42.338Z,0.70
2022-10-19T10:08:14.517Z,0.93
2022-10-19T10:10:46.621Z,1.08
2022-10-19T10:13:24.502Z,1.00
2022-10-19T10:15:55.022Z,1.17
2022-10-19T10:18:21.923Z,1.23
2022-10-19T10:21:11.442Z,1.20
2022-10-19T10:23:38.421Z,1.30
2022-10-19T10:26:06.321Z,0.90
2022-10-19T10:28:33.181Z,1.08
2022-10-19T10:31:05.082Z,1.00
2022-10-19T10:33:44.248Z,1.38
2022-10-19T10:36:12.099Z,1.80
2022-10-19T10:38:47.562Z,1.60
2022-10-19T10:41:20.271Z,1.92
2022-10-19T10:44:05.022Z,1.60
2022-10-19T10:46:37.280Z,1.55
2022-10-19T10:49:07.824Z,1.52
2022-10-19T10:51:39.017Z,1.05
2022-10-19T10:54:32.444Z,1.10
2022-10-19T10:57:19.934Z,0.87
2022-10-19T10:59:55.681Z,0.85
2022-10-19T11:02:30.662Z,1.30
2022-10-19T11:05:14.343Z,0.82
2022-10-19T11:08:02.743Z,1.15
2022-10-19T11:10:37.683Z,1.50
2022-10-19T11:13:15.361Z,1.75
2022-10-19T11:15:47.841Z,1.67
2022-10-19T11:18:27.745Z,1.10
2022-10-19T11:21:12.661Z,1.08
2022-10-19T11:24:04.002Z,0.73
2022-10-19T11:26:55.275Z,1.10
2022-10-19T11:29:34.661Z,0.80
2022-10-19T11:32:01.587Z,0.80
2022-10-19T11:35:05.843Z,1.15
2022-10-19T11:38:17.547Z,0.80
2022-10-19T11:40:59.665Z,0.77
2022-10-19T11:43:49.310Z,1.20
2022-10-19T11:46:30.900Z,1.77
2022-10-19T11:49:18.661Z,1.10
2022-10-19T11:52:13.104Z,1.70
2022-10-19T11:54:54.267Z,1.75
2022-10-19T11:57:46.902Z,1.80
2022-10-19T12:00:38.314Z,2.28
2022-10-19T12:03:29.330Z,1.10
2022-10-19T12:06:19.267Z,1.37
2022-10-19T12:09:01.071Z,1.00
2022-10-19T12:11:40.150Z,0.90
2022-10-19T12:14:11.580Z,0.80
2022-10-19T12:16:40.619Z,0.90
2022-10-19T12:19:07.544Z,1.00
2022-10-19T12:21:38.480Z,1.27
2022-10-19T12:24:16.622Z,1.40
2022-10-19T12:26:43.440Z,0.80
2022-10-19T12:29:19.904Z,0.90
2022-10-19T12:31:47.065Z,1.10
2022-10-19T12:34:51.024Z,1.15
2022-10-19T12:37:58.242Z,0.82
2022-10-19T12:40:47.860Z,1.33
2022-10-19T12:43:19.271Z,0.98
2022-10-19T12:46:23.403Z,1.07
2022-10-19T12:49:27.903Z,1.45
2022-10-19T12:51:56.244Z,1.80
2022-10-19T12:54:28.518Z,1.40
2022-10-19T12:56:56.741Z,1.35
2022-10-19T12:59:34.183Z,1.40
2022-10-19T13:02:01.761Z,1.30
2022-10-19T13:04:33.063Z,1.75
2022-10-19T13:07:04.563Z,1.30
2022-10-19T13:09:38.371Z,1.45
2022-10-19T13:12:21.527Z,1.40
2022-10-19T13:15:01.036Z,1.20
2022-10-19T13:17:34.358Z,1.50
2022-10-19T13:20:13.314Z,1.08
2022-10-19T13:22:41.004Z,1.30
2022-10-19T13:25:27.287Z,1.17
2022-10-19T13:27:55.185Z,0.98
2022-10-19T13:30:43.543Z,1.00
2022-10-19T13:33:29.167Z,0.70
2022-10-19T13:35:58.940Z,1.30
2022-10-19T13:38:28.830Z,0.70
2022-10-19T13:40:55.642Z,1.17
2022-10-19T13:43:27.641Z,1.08
2022-10-19T13:46:10.881Z,0.90
2022-10-19T13:49:05.305Z,1.10
2022-10-19T13:51:33.701Z,1.00
2022-10-19T13:54:37.602Z,0.88
2022-10-19T13:57:42.090Z,0.98
2022-10-19T14:00:15.941Z,0.95
2022-10-19T14:02:51.205Z,1.20
2022-10-19T14:05:35.761Z,0.83
2022-10-19T14:08:45.048Z,0.95
2022-10-19T14:11:13.325Z,0.95
2022-10-19T14:13:40.304Z,0.90
2022-10-19T14:16:07.224Z,0.90
2022-10-19T14:18:35.465Z,0.80
2022-10-19T14:21:09.305Z,1.00
2022-10-19T14:23:38.248Z,0.80
2022-10-19T14:26:16.942Z,1.27
2022-10-19T14:28:43.780Z,0.80
2022-10-19T14:31:13.325Z,0.87
2022-10-19T14:33:40.762Z,1.00
2022-10-19T14:36:07.841Z,1.08
2022-10-19T14:38:38.561Z,1.02
2022-10-19T14:41:06.065Z,0.90
2022-10-19T14:43:34.362Z,0.83
2022-10-19T14:46:07.253Z,1.00
2022-10-19T14:48:38.440Z,1.13
2022-10-19T14:51:15.139Z,0.73
2022-10-19T14:53:42.021Z,1.10
2022-10-19T14:56:17.803Z,1.00
2022-10-19T14:59:06.003Z,1.15
2022-10-19T15:01:32.890Z,1.42
2022-10-19T15:03:59.745Z,1.25
2022-10-19T15:06:31.222Z,1.30
2022-10-19T15:09:03.453Z,1.27
2022-10-19T15:11:38.282Z,1.10
2022-10-19T15:14:21.962Z,1.40
2022-10-19T15:16:58.151Z,1.30
2022-10-19T15:19:30.801Z,1.40
2022-10-19T15:22:23.791Z,1.27
2022-10-19T15:25:23.840Z,1.30
2022-10-19T15:27:51.180Z,1.27
2022-10-19T15:30:17.921Z,1.20
2022-10-19T15:32:45.742Z,1.10
2022-10-19T15:35:33.561Z,1.10
2022-10-19T15:38:24.499Z,1.30
2022-10-19T15:40:56.880Z,1.58
2022-10-19T15:43:33.528Z,1.17
2022-10-19T15:46:12.518Z,1.60
2022-10-19T15:48:42.926Z,0.97
2022-10-19T15:51:29.125Z,1.20
2022-10-19T15:54:03.546Z,1.48
2022-10-19T15:56:32.088Z,1.15
2022-10-19T15:59:00.029Z,1.23
2022-10-19T16:01:28.394Z,1.30
2022-10-19T16:03:55.502Z,1.33
2022-10-19T16:06:23.447Z,1.40
2022-10-19T16:08:51.396Z,1.20
2022-10-19T16:11:19.203Z,1.38
2022-10-19T16:13:46.143Z,1.10
2022-10-19T16:16:18.345Z,1.13
2022-10-19T16:18:45.142Z,1.33
2022-10-19T16:21:12.004Z,1.23
2022-10-19T16:23:41.876Z,1.38
2022-10-19T16:26:09.183Z,1.30
2022-10-19T16:28:36.023Z,1.15
2022-10-19T16:31:02.986Z,1.50
2022-10-19T16:33:29.762Z,1.10
2022-10-19T16:35:56.622Z,1.45
2022-10-19T16:38:23.442Z,1.37
2022-10-19T16:40:50.261Z,1.25
2022-10-19T16:43:17.061Z,1.50
2022-10-19T16:45:44.008Z,1.33
2022-10-19T16:48:13.706Z,1.48
2022-10-19T16:50:40.593Z,1.07
2022-10-19T16:53:11.561Z,1.63
2022-10-19T16:55:39.846Z,1.45
2022-10-19T16:58:06.782Z,1.23
2022-10-19T17:00:33.863Z,1.58
2022-10-19T17:03:00.638Z,1.33
2022-10-19T17:05:27.501Z,1.35
2022-10-19T17:07:54.333Z,1.75
2022-10-19T17:10:21.186Z,1.27
2022-10-19T17:12:48.045Z,1.50
2022-10-19T17:15:41.610Z,1.50
2022-10-19T17:18:01.684Z,1.60
2022-10-19T17:20:28.515Z,2.00
2022-10-19T17:22:55.333Z,2.00
2022-10-19T17:25:22.127Z,2.00
2022-10-19T17:27:52.228Z,1.77
2022-10-19T17:30:19.042Z,2.00
2022-10-19T17:32:45.892Z,2.53
2022-10-19T17:35:12.746Z,1.83
2022-10-19T17:37:39.595Z,1.92
2022-10-19T17:40:07.296Z,2.00
2022-10-19T17:42:36.564Z,1.92
2022-10-19T17:45:03.593Z,2.10
2022-10-19T17:47:30.695Z,1.90
2022-10-19T17:49:57.645Z,2.25
2022-10-19T17:52:24.424Z,1.67
2022-10-19T17:55:11.076Z,1.67
2022-10-19T17:57:38.254Z,1.88
2022-10-19T18:00:07.200Z,1.80
2022-10-19T18:02:35.610Z,2.00
2022-10-19T18:05:02.689Z,1.97
2022-10-19T18:07:29.533Z,1.95
2022-10-19T18:09:56.358Z,1.70
2022-10-19T18:12:23.232Z,1.95
2022-10-19T18:14:50.037Z,1.98
2022-10-19T18:17:16.881Z,1.83
2022-10-19T18:19:43.685Z,2.08
2022-10-19T18:22:10.570Z,1.83
2022-10-19T18:24:37.396Z,2.08
2022-10-19T18:27:04.214Z,1.92
2022-10-19T18:29:31.011Z,2.00
2022-10-19T18:31:57.921Z,1.70
2022-10-19T18:34:25.780Z,2.05
2022-10-19T18:36:52.715Z,2.25
2022-10-19T18:39:19.486Z,2.20
2022-10-19T18:41:46.400Z,2.00
2022-10-19T18:44:13.410Z,2.40
2022-10-19T18:46:40.196Z,2.22
2022-10-19T18:49:08.274Z,2.90
2022-10-19T18:51:35.227Z,3.03
2022-10-19T18:54:02.112Z,2.93
2022-10-19T18:56:29.606Z,2.55
2022-10-19T18:58:56.850Z,3.03
2022-10-19T19:01:27.547Z,2.90
2022-10-19T19:03:58.765Z,2.95
2022-10-19T19:06:28.983Z,2.40
2022-10-19T19:08:56.651Z,2.60
2022-10-19T19:11:25.117Z,2.95
2022-10-19T19:13:56.196Z,3.10
2022-10-19T19:16:23.307Z,2.80
2022-10-19T19:18:50.290Z,2.43
2022-10-19T19:21:24.747Z,2.88
2022-10-19T19:23:51.873Z,2.55
2022-10-19T19:26:19.198Z,2.50
2022-10-19T19:28:49.096Z,2.50
2022-10-19T19:31:17.442Z,2.80
2022-10-19T19:33:45.089Z,2.78
2022-10-19T19:36:12.805Z,3.00
2022-10-19T19:38:39.674Z,3.00
2022-10-19T19:41:11.688Z,3.17
2022-10-19T19:43:38.800Z,2.90
2022-10-19T19:46:09.540Z,3.08
2022-10-19T19:48:37.245Z,3.38
2022-10-19T19:51:04.138Z,3.13
2022-10-19T19:53:31.168Z,3.25
2022-10-19T19:55:57.995Z,2.93
2022-10-19T19:58:24.749Z,3.17
2022-10-19T20:00:51.510Z,3.70
2022-10-19T20:03:18.428Z,3.97
2022-10-19T20:05:45.250Z,4.10
2022-10-19T20:08:12.053Z,4.03
2022-10-19T20:10:42.209Z,4.05
2022-10-19T20:13:09.112Z,4.38
2022-10-19T20:15:39.070Z,4.47
2022-10-19T20:18:06.648Z,4.72
2022-10-19T20:20:33.533Z,4.20
2022-10-19T20:23:00.328Z,4.32
2022-10-19T20:25:27.216Z,5.15
2022-10-19T20:27:54.050Z,4.63
2022-10-19T20:30:20.897Z,4.75
2022-10-19T20:32:47.735Z,4.53
2022-10-19T20:35:14.712Z,4.80
2022-10-19T20:37:41.735Z,4.68
2022-10-19T20:40:09.187Z,4.70
2022-10-19T20:42:36.427Z,4.93
2022-10-19T20:45:03.940Z,4.40
2022-10-19T20:47:30.808Z,4.70
2022-10-19T20:49:57.697Z,4.60
2022-10-19T20:52:24.602Z,4.78
2022-10-19T20:54:51.362Z,5.32
2022-10-19T20:57:18.192Z,5.03
2022-10-19T20:59:45.811Z,4.80
2022-10-19T21:02:12.620Z,4.90
2022-10-19T21:04:39.459Z,5.25
2022-10-19T21:07:06.304Z,5.10
2022-10-19T21:09:33.255Z,4.73
2022-10-19T21:12:01.387Z,5.05
2022-10-19T21:14:29.149Z,4.80
2022-10-19T21:16:59.886Z,4.95
2022-10-19T21:19:27.733Z,5.57
2022-10-19T21:21:57.005Z,5.20
2022-10-19T21:24:25.838Z,4.88
2022-10-19T21:26:52.895Z,5.28
2022-10-19T21:29:19.910Z,4.63
2022-10-19T21:31:49.109Z,4.80
2022-10-19T21:34:24.120Z,4.20
2022-10-19T21:36:50.970Z,4.57
2022-10-19T21:39:17.844Z,4.47
2022-10-19T21:41:44.789Z,4.60
2022-10-19T21:44:11.568Z,4.55
2022-10-19T21:46:38.398Z,4.63
2022-10-19T21:49:05.214Z,4.63
2022-10-19T21:51:54.127Z,4.70
2022-10-19T21:54:22.555Z,4.60
2022-10-19T21:56:49.509Z,5.05
2022-10-19T21:59:16.766Z,4.70
2022-10-19T22:01:43.757Z,4.55
2022-10-19T22:04:15.053Z,4.78
2022-10-19T22:06:42.144Z,4.70
2022-10-19T22:09:10.094Z,3.92
2022-10-19T22:11:37.028Z,3.97
2022-10-19T22:14:03.996Z,4.53
2022-10-19T22:16:31.156Z,4.63
2022-10-19T22:18:58.027Z,3.85
2022-10-19T22:21:26.831Z,4.53
2022-10-19T22:24:04.056Z,3.80
2022-10-19T22:26:35.921Z,4.15
2022-10-19T22:29:02.988Z,4.47
2022-10-19T22:31:30.917Z,3.75
2022-10-19T22:33:57.994Z,4.10
2022-10-19T22:36:24.814Z,4.13
2022-10-19T22:38:51.653Z,4.15
2022-10-19T22:41:18.945Z,3.92
2022-10-19T22:43:45.695Z,3.70
2022-10-19T22:46:12.443Z,3.85
2022-10-19T22:48:39.188Z,3.60
2022-10-19T22:51:06.048Z,3.65
2022-10-19T22:53:32.785Z,3.80
2022-10-19T22:55:59.562Z,3.17
2022-10-19T22:58:26.298Z,2.92
2022-10-19T23:01:00.820Z,3.53
2022-10-19T23:03:27.586Z,3.40
2022-10-19T23:05:54.339Z,3.25
2022-10-19T23:08:21.073Z,3.72
2022-10-19T23:10:47.777Z,3.35
2022-10-19T23:13:15.225Z,3.20
2022-10-19T23:15:43.947Z,3.45
2022-10-19T23:18:11.253Z,3.47
2022-10-19T23:20:38.037Z,3.50
2022-10-19T23:23:04.995Z,4.05
2022-10-19T23:27:58.427Z,3.60
2022-10-19T23:30:25.176Z,3.85
2022-10-19T23:32:51.949Z,3.60
2022-10-19T23:35:18.695Z,3.50
2022-10-19T23:37:45.415Z,3.47
2022-10-19T23:40:12.453Z,3.42
2022-10-19T23:42:39.255Z,3.85
2022-10-19T23:45:06.627Z,3.30
2022-10-19T23:47:33.661Z,3.05
2022-10-19T23:50:00.620Z,3.40
2022-10-19T23:52:27.406Z,2.80
2022-10-19T23:54:54.204Z,3.55
2022-10-19T23:57:21.013Z,3.00
2022-10-19T23:59:47.835Z,3.00
